createdAt,value
2019-04-21T00:00:31.824Z,41.61
2019-04-21T00:01:35.621Z,42.22
2019-04-21T00:02:35.784Z,41.92
2019-04-21T00:03:38.334Z,42.14
2019-04-21T00:04:42.944Z,42.22
2019-04-21T00:05:53.256Z,41.92
2019-04-21T00:06:48.549Z,41.74
2019-04-21T00:07:51.082Z,42.76
2019-04-21T00:08:50.829Z,41.53
2019-04-21T00:09:56.380Z,42.35
2019-04-21T00:10:57.787Z,41.94
2019-04-21T00:11:57.175Z,41.94
2019-04-21T00:12:49.446Z,42.04
2019-04-21T00:13:42.495Z,41.74
2019-04-21T00:14:43.818Z,42.04
2019-04-21T00:15:38.694Z,41.84
2019-04-21T00:16:39.088Z,42.55
2019-04-21T00:17:32.073Z,42.55
2019-04-21T00:18:40.866Z,42.76
2019-04-21T00:19:34.955Z,41.84
2019-04-21T00:20:39.227Z,42.65
2019-04-21T00:21:38.485Z,41.84
2019-04-21T00:22:44.307Z,42.57
2019-04-21T00:23:49.617Z,42.68
2019-04-21T00:24:44.328Z,41.74
2019-04-21T00:25:46.012Z,41.53
2019-04-21T00:26:49.320Z,42.47
2019-04-21T00:27:46.479Z,42.68
2019-04-21T00:28:59.488Z,42.68
2019-04-21T00:29:48.248Z,42.77
2019-04-21T00:30:50.913Z,42.47
2019-04-21T00:31:45.571Z,42.98
2019-04-21T00:32:41.822Z,42.57
2019-04-21T00:33:35.254Z,42.59
2019-04-21T00:34:32.136Z,42.47
2019-04-21T00:35:39.588Z,42.57
2019-04-21T00:36:43.028Z,42.77
2019-04-21T00:37:53.469Z,43.18
2019-04-21T00:39:03.063Z,42.47
2019-04-21T00:40:17.848Z,42.68
2019-04-21T00:40:54.161Z,42.47
2019-04-21T00:41:53.669Z,41.66
2019-04-21T00:42:48.869Z,43.08
2019-04-21T00:43:44.785Z,42.68
2019-04-21T00:44:51.151Z,42.68
2019-04-21T00:45:43.528Z,42.57
2019-04-21T00:46:45.306Z,42.27
2019-04-21T00:47:51.112Z,43.18
2019-04-21T00:48:55.112Z,43.29
2019-04-21T00:49:53.910Z,42.77
2019-04-21T00:51:03.546Z,42.69
2019-04-21T00:52:03.897Z,42.80
2019-04-21T00:53:05.705Z,43.10
2019-04-21T00:54:02.807Z,43.41
2019-04-21T00:55:01.721Z,43.41
2019-04-21T00:55:51.400Z,43.20
2019-04-21T00:56:56.663Z,43.10
2019-04-21T00:57:58.500Z,42.90
2019-04-21T00:58:53.409Z,43.30
2019-04-21T00:59:54.459Z,43.00
2019-04-21T01:01:48.095Z,43.51
2019-04-21T01:02:57.588Z,42.29
2019-04-21T01:03:55.026Z,43.10
2019-04-21T01:04:57.652Z,43.00
2019-04-21T01:05:58.430Z,42.49
2019-04-21T01:06:47.950Z,42.39
2019-04-21T01:07:50.615Z,42.69
2019-04-21T01:08:46.823Z,43.10
2019-04-21T01:09:45.021Z,43.00
2019-04-21T01:10:43.566Z,43.20
2019-04-21T01:11:49.466Z,43.41
2019-04-21T01:12:56.318Z,43.20
2019-04-21T01:13:58.290Z,43.81
2019-04-21T01:14:56.927Z,42.61
2019-04-21T01:15:54.570Z,44.45
2019-04-21T01:16:51.984Z,43.73
2019-04-21T01:17:52.165Z,43.84
2019-04-21T01:18:49.272Z,43.63
2019-04-21T01:19:47.098Z,43.63
2019-04-21T01:20:30.446Z,43.02
2019-04-21T01:21:29.449Z,42.92
2019-04-21T01:22:29.429Z,44.14
2019-04-21T01:23:29.782Z,44.04
2019-04-21T01:24:34.701Z,43.84
2019-04-21T01:25:39.331Z,43.94
2019-04-21T01:26:41.478Z,43.84
2019-04-21T01:27:52.062Z,43.94
2019-04-21T01:28:49.568Z,43.84
2019-04-21T01:29:53.121Z,43.96
2019-04-21T01:30:54.903Z,44.24
2019-04-21T01:31:48.067Z,44.16
2019-04-21T01:32:57.565Z,44.16
2019-04-21T01:33:50.797Z,43.85
2019-04-21T01:34:51.629Z,44.78
2019-04-21T01:35:48.220Z,44.06
2019-04-21T01:36:46.075Z,44.57
2019-04-21T01:37:57.789Z,44.46
2019-04-21T01:38:58.988Z,44.06
2019-04-21T01:39:53.583Z,44.24
2019-04-21T01:40:55.493Z,44.16
2019-04-21T01:41:51.243Z,45.18
2019-04-21T01:42:51.044Z,44.46
2019-04-21T01:43:49.164Z,45.08
2019-04-21T01:44:52.845Z,44.57
2019-04-21T01:45:48.966Z,43.85
2019-04-21T01:46:45.418Z,44.46
2019-04-21T01:47:49.085Z,44.78
2019-04-21T01:48:44.338Z,44.46
2019-04-21T01:49:46.661Z,45.10
2019-04-21T01:50:49.690Z,45.00
2019-04-21T01:52:03.090Z,44.90
2019-04-21T01:53:11.531Z,44.49
2019-04-21T01:53:48.602Z,44.92
2019-04-21T01:54:48.164Z,45.40
2019-04-21T01:55:52.832Z,45.92
2019-04-21T01:56:51.227Z,44.90
2019-04-21T01:57:45.159Z,45.72
2019-04-21T01:58:42.794Z,46.02
2019-04-21T01:59:42.579Z,45.72
2019-04-21T02:00:45.605Z,46.34
2019-04-21T02:01:56.363Z,46.14
2019-04-21T02:02:56.637Z,46.04
2019-04-21T02:04:02.669Z,46.55
2019-04-21T02:04:57.971Z,46.34
2019-04-21T02:05:58.664Z,45.32
2019-04-21T02:06:50.419Z,46.25
2019-04-21T02:07:50.525Z,46.25
2019-04-21T02:08:52.555Z,46.26
2019-04-21T02:09:55.612Z,46.47
2019-04-21T02:10:54.951Z,45.96
2019-04-21T02:11:56.514Z,46.06
2019-04-21T02:12:50.972Z,46.26
2019-04-21T02:13:57.671Z,47.39
2019-04-21T02:14:59.198Z,47.39
2019-04-21T02:15:59.289Z,47.39
2019-04-21T02:16:54.046Z,48.00
2019-04-21T02:17:54.123Z,47.90
2019-04-21T02:18:49.387Z,47.90
2019-04-21T02:19:46.340Z,47.39
2019-04-21T02:20:41.297Z,46.88
2019-04-21T02:21:46.304Z,47.39
2019-04-21T02:23:06.704Z,47.52
2019-04-21T02:23:54.346Z,47.41
2019-04-21T02:24:59.871Z,48.33
2019-04-21T02:25:50.591Z,48.13
2019-04-21T02:26:57.291Z,48.02
2019-04-21T02:28:55.827Z,48.02
2019-04-21T02:29:55.628Z,48.02
2019-04-21T02:31:05.013Z,48.43
2019-04-21T02:32:05.677Z,48.74
2019-04-21T02:33:19.612Z,48.54
2019-04-21T02:33:58.518Z,48.33
2019-04-21T02:35:25.496Z,48.46
2019-04-21T02:38:03.648Z,48.15
2019-04-21T02:40:08.578Z,48.05
2019-04-21T02:42:15.779Z,48.56
2019-04-21T02:43:07.365Z,48.97
2019-04-21T02:44:59.912Z,48.56
2019-04-21T02:46:10.550Z,48.56
2019-04-21T02:47:24.110Z,48.66
2019-04-21T02:50:50.084Z,47.33
2019-04-21T02:52:02.892Z,47.23
2019-04-21T02:53:01.327Z,48.13
2019-04-21T02:54:35.917Z,48.66
2019-04-21T02:55:03.745Z,48.43
2019-04-21T02:56:01.069Z,48.54
2019-04-21T02:57:02.009Z,48.46
2019-04-21T02:58:06.200Z,48.97
2019-04-21T02:59:02.392Z,48.56
2019-04-21T03:01:04.640Z,49.17
2019-04-21T03:02:17.206Z,49.58
2019-04-21T03:03:05.760Z,50.01
2019-04-21T03:04:06.208Z,50.22
2019-04-21T03:05:07.397Z,49.91
2019-04-21T03:05:59.615Z,48.89
2019-04-21T03:07:09.412Z,49.91
2019-04-21T03:08:15.361Z,49.81
2019-04-21T03:09:05.906Z,50.60
2019-04-21T03:09:59.818Z,50.12
2019-04-21T03:11:04.300Z,50.52
2019-04-21T03:12:04.987Z,50.22
2019-04-21T03:13:07.667Z,50.01
2019-04-21T03:14:10.434Z,50.42
2019-04-21T03:15:06.084Z,49.91
2019-04-21T03:16:09.812Z,50.01
2019-04-21T03:16:58.227Z,48.48
2019-04-21T03:18:12.995Z,48.48
2019-04-21T03:19:06.645Z,48.89
2019-04-21T03:19:59.878Z,48.58
2019-04-21T03:21:07.153Z,47.33
2019-04-21T03:22:10.208Z,48.38
2019-04-21T03:25:21.402Z,47.53
2019-04-21T03:26:20.378Z,47.13
2019-04-21T03:27:12.137Z,47.53
2019-04-21T03:28:04.944Z,47.44
2019-04-21T03:29:59.263Z,47.20
2019-04-21T03:31:19.559Z,45.98
2019-04-21T03:35:37.910Z,46.49
2019-04-21T03:38:55.373Z,46.59
2019-04-21T03:39:59.744Z,46.29
2019-04-21T03:41:01.105Z,46.39
2019-04-21T03:42:57.158Z,46.19
2019-04-21T03:43:59.184Z,46.29
2019-04-21T03:47:06.876Z,46.90
2019-04-21T03:48:05.300Z,47.00
2019-04-21T03:49:02.509Z,45.98
2019-04-21T03:50:04.615Z,46.29
2019-04-21T03:50:58.785Z,46.29
2019-04-21T03:52:03.536Z,46.39
2019-04-21T03:55:19.306Z,46.80
2019-04-21T03:56:12.432Z,46.08
2019-04-21T03:57:10.528Z,45.98
2019-04-21T04:00:16.033Z,47.41
2019-04-21T04:01:05.880Z,47.20
2019-04-21T04:02:08.245Z,47.20
2019-04-21T04:03:08.013Z,47.20
2019-04-21T04:04:08.483Z,47.41
2019-04-21T04:05:05.707Z,47.20
2019-04-21T04:08:17.894Z,47.41
2019-04-21T04:10:03.693Z,47.31
2019-04-21T04:12:57.083Z,47.52
2019-04-21T04:14:03.453Z,46.90
2019-04-21T04:15:02.920Z,47.31
2019-04-21T04:16:06.957Z,45.98
2019-04-21T04:17:06.088Z,47.41
2019-04-21T04:17:58.787Z,47.31
2019-04-21T04:20:01.438Z,45.88
2019-04-21T04:21:06.109Z,45.98
2019-04-21T04:24:08.983Z,47.00
2019-04-21T04:25:11.171Z,46.19
2019-04-21T04:25:59.450Z,47.11
2019-04-21T04:27:20.900Z,47.61
2019-04-21T04:28:14.256Z,47.72
2019-04-21T04:29:03.908Z,48.54
2019-04-21T04:29:59.284Z,49.46
2019-04-21T04:32:16.558Z,49.76
2019-04-21T04:33:03.325Z,49.76
2019-04-21T04:34:04.877Z,49.87
2019-04-21T04:35:03.815Z,50.58
2019-04-21T04:37:05.104Z,49.99
2019-04-21T04:38:00.487Z,50.50
2019-04-21T04:39:17.978Z,51.01
2019-04-21T04:40:17.396Z,50.30
2019-04-21T04:42:04.929Z,51.53
2019-04-21T04:42:56.998Z,51.21
2019-04-21T04:44:04.907Z,51.65
2019-04-21T04:45:04.326Z,51.65
2019-04-21T04:47:05.831Z,51.65
2019-04-21T04:47:59.183Z,52.37
2019-04-21T04:49:02.068Z,52.06
2019-04-21T04:49:55.174Z,51.95
2019-04-21T04:54:22.558Z,52.37
2019-04-21T04:56:05.782Z,52.03
2019-04-21T04:57:08.382Z,52.26
2019-04-21T04:57:59.047Z,52.16
2019-04-21T05:00:15.478Z,51.75
2019-04-21T05:01:08.630Z,51.86
2019-04-21T05:02:20.033Z,52.47
2019-04-21T05:02:58.775Z,52.57
2019-04-21T05:03:56.917Z,53.19
2019-04-21T05:05:07.352Z,52.78
2019-04-21T05:06:19.374Z,51.86
2019-04-21T05:06:56.320Z,52.57
2019-04-21T05:08:15.921Z,53.19
2019-04-21T05:09:10.934Z,52.78
2019-04-21T05:10:54.548Z,52.16
2019-04-21T05:11:20.833Z,51.65
2019-04-21T05:13:04.299Z,52.37
2019-04-21T05:15:06.501Z,51.75
2019-04-21T05:16:02.173Z,52.47
2019-04-21T05:17:14.175Z,52.06
2019-04-21T05:20:08.580Z,51.95
2019-04-21T05:21:04.358Z,52.06
2019-04-21T05:21:59.525Z,51.83
2019-04-21T05:23:05.941Z,51.42
2019-04-21T05:23:50.100Z,51.73
2019-04-21T05:24:44.094Z,51.73
2019-04-21T05:26:46.267Z,49.99
2019-04-21T05:27:45.178Z,49.55
2019-04-21T05:28:43.628Z,48.54
2019-04-21T05:29:55.653Z,47.80
2019-04-21T05:30:56.052Z,47.78
2019-04-21T05:31:56.181Z,45.92
2019-04-21T05:32:52.499Z,46.63
2019-04-21T05:33:54.259Z,46.33
2019-04-21T05:34:50.489Z,45.89
2019-04-21T05:35:51.868Z,46.10
2019-04-21T05:36:45.984Z,45.67
2019-04-21T05:37:50.359Z,45.87
2019-04-21T05:38:41.839Z,45.16
2019-04-21T05:39:42.306Z,45.47
2019-04-21T05:40:38.822Z,45.95
2019-04-21T05:41:38.645Z,45.16
2019-04-21T05:42:45.868Z,44.63
2019-04-21T05:43:47.511Z,44.43
2019-04-21T05:45:56.748Z,44.53
2019-04-21T05:47:00.969Z,44.83
2019-04-21T05:47:55.884Z,44.51
2019-04-21T05:48:45.482Z,43.90
2019-04-21T05:49:48.615Z,44.38
2019-04-21T05:50:47.921Z,43.55
2019-04-21T05:51:44.284Z,43.55
2019-04-21T05:52:43.004Z,43.67
2019-04-21T05:53:52.100Z,44.08
2019-04-21T05:55:49.186Z,44.28
2019-04-21T05:56:51.614Z,44.08
2019-04-21T05:57:48.120Z,43.67
2019-04-21T05:58:48.050Z,44.00
2019-04-21T05:59:49.085Z,43.98
2019-04-21T06:01:08.715Z,43.90
2019-04-21T06:02:02.218Z,44.10
2019-04-21T06:02:50.978Z,44.38
2019-04-21T06:03:59.677Z,43.90
2019-04-21T06:05:10.456Z,44.31
2019-04-21T06:06:13.807Z,44.10
2019-04-21T06:07:02.094Z,44.10
2019-04-21T06:07:48.979Z,44.20
2019-04-21T06:08:48.114Z,44.31
2019-04-21T06:11:51.395Z,44.71
2019-04-21T06:12:50.958Z,44.53
2019-04-21T06:13:55.087Z,45.12
2019-04-21T06:15:56.193Z,44.00
2019-04-21T06:17:49.250Z,44.20
2019-04-21T06:18:53.149Z,43.87
2019-04-21T06:20:57.588Z,44.28
2019-04-21T06:21:45.189Z,43.87
2019-04-21T06:22:52.730Z,44.08
2019-04-21T06:23:47.898Z,44.28
2019-04-21T06:25:15.612Z,43.85
2019-04-21T06:26:11.813Z,44.16
2019-04-21T06:27:04.924Z,44.67
2019-04-21T06:27:50.817Z,43.77
2019-04-21T06:29:04.189Z,43.55
2019-04-21T06:29:49.147Z,43.67
2019-04-21T06:30:59.660Z,43.65
2019-04-21T06:32:17.739Z,43.65
2019-04-21T06:32:49.283Z,43.85
2019-04-21T06:33:50.465Z,43.55
2019-04-21T06:35:07.180Z,43.85
2019-04-21T06:36:11.370Z,43.04
2019-04-21T06:37:54.403Z,43.85
2019-04-21T06:38:59.689Z,43.75
2019-04-21T06:40:01.863Z,43.63
2019-04-21T06:40:48.659Z,43.93
2019-04-21T06:41:49.791Z,43.84
2019-04-21T06:42:52.282Z,43.63
2019-04-21T06:43:56.606Z,43.73
2019-04-21T06:45:03.748Z,43.02
2019-04-21T06:45:58.932Z,43.10
2019-04-21T06:46:46.000Z,42.92
2019-04-21T06:47:49.920Z,43.12
2019-04-21T06:48:56.969Z,42.92
2019-04-21T06:49:48.612Z,42.82
2019-04-21T06:50:52.629Z,42.90
2019-04-21T06:51:46.851Z,42.69
2019-04-21T06:52:56.245Z,42.90
2019-04-21T06:53:54.526Z,43.71
2019-04-21T06:55:12.069Z,42.90
2019-04-21T06:55:44.121Z,42.82
2019-04-21T06:57:26.001Z,42.90
2019-04-21T06:57:51.872Z,43.00
2019-04-21T06:58:51.437Z,42.90
2019-04-21T06:59:43.948Z,42.80
2019-04-21T07:00:45.599Z,42.90
2019-04-21T07:01:54.744Z,42.69
2019-04-21T07:02:52.137Z,43.30
2019-04-21T07:03:58.952Z,42.39
2019-04-21T07:04:50.517Z,43.18
2019-04-21T07:05:56.061Z,42.59
2019-04-21T07:06:56.333Z,42.88
2019-04-21T07:07:55.218Z,42.57
2019-04-21T07:08:56.609Z,42.57
2019-04-21T07:09:52.773Z,42.98
2019-04-21T07:10:54.620Z,42.98
2019-04-21T07:11:48.768Z,42.77
2019-04-21T07:12:49.690Z,43.29
2019-04-21T07:13:50.886Z,43.29
2019-04-21T07:14:48.249Z,43.08
2019-04-21T07:15:53.889Z,42.47
2019-04-21T07:16:51.022Z,42.57
2019-04-21T07:17:51.220Z,42.88
2019-04-21T07:18:56.599Z,42.47
2019-04-21T07:20:07.419Z,42.37
2019-04-21T07:20:50.555Z,42.17
2019-04-21T07:21:46.753Z,42.98
2019-04-21T07:22:50.536Z,42.68
2019-04-21T07:23:57.222Z,42.37
2019-04-21T07:24:47.979Z,42.68
2019-04-21T07:25:52.903Z,42.88
2019-04-21T07:26:51.303Z,42.57
2019-04-21T07:27:46.867Z,42.66
2019-04-21T07:28:57.122Z,42.68
2019-04-21T07:29:53.412Z,43.16
2019-04-21T07:30:57.538Z,43.26
2019-04-21T07:31:55.889Z,42.14
2019-04-21T07:32:55.927Z,42.96
2019-04-21T07:34:51.897Z,42.84
2019-04-21T07:35:43.277Z,42.86
2019-04-21T07:36:54.843Z,43.47
2019-04-21T07:37:48.119Z,42.25
2019-04-21T07:38:48.461Z,42.45
2019-04-21T07:39:46.905Z,42.54
2019-04-21T07:40:42.703Z,42.84
2019-04-21T07:41:44.075Z,42.66
2019-04-21T07:42:45.330Z,42.43
2019-04-21T07:43:42.848Z,42.63
2019-04-21T07:44:40.882Z,42.43
2019-04-21T07:45:40.569Z,42.54
2019-04-21T07:46:41.594Z,42.54
2019-04-21T07:47:48.047Z,42.23
2019-04-21T07:48:49.713Z,41.70
2019-04-21T07:49:53.083Z,41.40
2019-04-21T07:50:47.475Z,41.70
2019-04-21T07:51:50.991Z,41.40
2019-04-21T07:52:49.386Z,41.50
2019-04-21T07:53:49.874Z,41.80
2019-04-21T07:55:03.507Z,42.11
2019-04-21T07:56:33.270Z,42.00
2019-04-21T07:57:39.736Z,41.80
2019-04-21T07:58:49.262Z,41.88
2019-04-21T07:59:59.383Z,41.50
2019-04-21T08:00:51.069Z,41.58
2019-04-21T08:01:48.265Z,41.38
2019-04-21T08:02:49.757Z,41.38
2019-04-21T08:03:47.852Z,40.97
2019-04-21T08:05:07.436Z,41.68
2019-04-21T08:05:47.093Z,41.28
2019-04-21T08:06:47.806Z,42.19
2019-04-21T08:08:12.125Z,41.78
2019-04-21T08:08:46.672Z,41.38
2019-04-21T08:09:46.762Z,41.26
2019-04-21T08:11:44.197Z,41.16
2019-04-21T08:12:43.349Z,41.77
2019-04-21T08:13:53.302Z,41.97
2019-04-21T08:14:46.477Z,41.66
2019-04-21T08:15:48.194Z,41.26
2019-04-21T08:16:55.664Z,41.36
2019-04-21T08:17:47.273Z,41.36
2019-04-21T08:18:47.230Z,41.05
2019-04-21T08:19:43.325Z,40.65
2019-04-21T08:20:41.898Z,40.34
2019-04-21T08:22:51.679Z,40.43
2019-04-21T08:23:43.409Z,40.63
2019-04-21T08:24:50.790Z,41.54
2019-04-21T08:25:56.992Z,40.94
2019-04-21T08:27:06.385Z,40.53
2019-04-21T08:27:54.547Z,41.54
2019-04-21T08:28:47.531Z,40.94
2019-04-21T08:29:46.475Z,40.61
2019-04-21T08:30:44.443Z,40.61
2019-04-21T08:32:52.772Z,41.02
2019-04-21T08:34:09.885Z,39.60
2019-04-21T08:34:55.751Z,41.42
2019-04-21T08:36:03.352Z,40.41
2019-04-21T08:36:47.784Z,40.00
2019-04-21T08:37:43.323Z,39.58
2019-04-21T08:38:51.576Z,39.58
2019-04-21T08:39:59.383Z,38.46
2019-04-21T08:40:40.824Z,39.78
2019-04-21T08:41:45.169Z,39.17
2019-04-21T08:42:46.720Z,39.98
2019-04-21T08:43:45.204Z,39.58
2019-04-21T08:44:47.854Z,39.98
2019-04-21T08:45:47.806Z,39.37
2019-04-21T08:46:46.104Z,39.46
2019-04-21T08:47:45.825Z,38.37
2019-04-21T08:48:49.477Z,38.24
2019-04-21T08:49:49.070Z,38.45
2019-04-21T08:50:44.499Z,38.24
2019-04-21T08:51:51.896Z,38.24
2019-04-21T08:52:49.301Z,38.85
2019-04-21T08:53:49.293Z,38.04
2019-04-21T08:54:47.203Z,38.55
2019-04-21T08:55:49.261Z,37.94
2019-04-21T08:56:46.781Z,37.94
2019-04-21T08:57:50.475Z,38.93
2019-04-21T08:58:54.404Z,37.92
2019-04-21T08:59:45.941Z,38.23
2019-04-21T09:00:46.810Z,37.92
2019-04-21T09:01:42.703Z,38.33
2019-04-21T09:02:47.509Z,37.92
2019-04-21T09:03:43.016Z,37.52
2019-04-21T09:04:46.320Z,37.81
2019-04-21T09:05:42.616Z,37.90
2019-04-21T09:07:10.624Z,37.20
2019-04-21T09:07:45.868Z,36.79
2019-04-21T09:08:47.508Z,36.90
2019-04-21T09:09:47.544Z,37.60
2019-04-21T09:10:39.890Z,37.81
2019-04-21T09:11:40.531Z,37.81
2019-04-21T09:12:43.160Z,37.70
2019-04-21T09:13:42.604Z,38.21
2019-04-21T09:14:42.973Z,37.68
2019-04-21T09:15:41.597Z,37.79
2019-04-21T09:16:41.226Z,37.59
2019-04-21T09:17:36.738Z,36.98
2019-04-21T09:18:38.144Z,36.37
2019-04-21T09:19:52.857Z,36.98
2019-04-21T09:20:47.347Z,36.96
2019-04-21T09:21:43.577Z,37.37
2019-04-21T09:22:41.636Z,36.86
2019-04-21T09:23:45.558Z,36.15
2019-04-21T09:24:47.753Z,36.25
2019-04-21T09:25:46.555Z,35.65
2019-04-21T09:26:43.170Z,35.63
2019-04-21T09:27:43.551Z,35.93
2019-04-21T09:28:39.602Z,35.83
2019-04-21T09:29:31.022Z,34.92
2019-04-21T09:30:26.346Z,34.92
2019-04-21T09:31:31.862Z,35.03
2019-04-21T09:32:27.629Z,35.61
2019-04-21T09:33:33.459Z,36.02
2019-04-21T09:34:35.901Z,36.02
2019-04-21T09:35:25.124Z,35.92
2019-04-21T09:36:33.412Z,35.61
2019-04-21T09:37:39.334Z,35.11
2019-04-21T09:38:33.865Z,35.11
2019-04-21T09:39:29.200Z,35.72
2019-04-21T09:40:30.104Z,34.89
2019-04-21T09:41:27.408Z,34.89
2019-04-21T09:42:33.336Z,35.30
2019-04-21T09:43:35.477Z,34.99
2019-04-21T09:44:30.866Z,34.79
2019-04-21T09:45:26.488Z,35.19
2019-04-21T09:46:25.340Z,35.39
2019-04-21T09:47:33.615Z,34.79
2019-04-21T09:48:26.630Z,34.99
2019-04-21T09:49:29.044Z,35.39
2019-04-21T09:50:24.966Z,34.99
2019-04-21T09:51:23.975Z,35.19
2019-04-21T09:52:29.263Z,34.19
2019-04-21T09:53:31.229Z,32.76
2019-04-21T09:54:29.829Z,32.24
2019-04-21T09:55:31.754Z,32.34
2019-04-21T09:56:34.352Z,32.34
2019-04-21T09:57:35.050Z,32.75
2019-04-21T09:58:32.867Z,32.64
2019-04-21T09:59:30.011Z,32.95
2019-04-21T10:00:29.361Z,32.54
2019-04-21T10:01:32.243Z,33.25
2019-04-21T10:02:34.184Z,32.54
2019-04-21T10:03:26.211Z,33.04
2019-04-21T10:04:23.834Z,32.44
2019-04-21T10:05:25.059Z,32.84
2019-04-21T10:06:23.835Z,33.15
2019-04-21T10:07:30.764Z,33.75
2019-04-21T10:08:25.085Z,33.04
2019-04-21T10:09:24.293Z,32.04
2019-04-21T10:10:23.771Z,32.34
2019-04-21T10:11:24.527Z,32.93
2019-04-21T10:12:23.727Z,32.63
2019-04-21T10:13:25.233Z,33.33
2019-04-21T10:14:24.306Z,32.23
2019-04-21T10:15:26.276Z,32.23
2019-04-21T10:16:23.930Z,32.84
2019-04-21T10:17:23.978Z,32.14
2019-04-21T10:18:23.659Z,32.34
2019-04-21T10:19:23.687Z,32.64
2019-04-21T10:20:24.502Z,32.44
2019-04-21T10:21:25.831Z,32.84
2019-04-21T10:22:23.626Z,33.04
2019-04-21T10:23:23.616Z,32.95
2019-04-21T10:24:24.543Z,33.13
2019-04-21T10:25:24.984Z,33.03
2019-04-21T10:26:24.379Z,33.53
2019-04-21T10:27:23.574Z,33.73
2019-04-21T10:28:23.566Z,33.53
2019-04-21T10:29:26.462Z,32.63
2019-04-21T10:30:24.721Z,32.43
2019-04-21T10:31:24.836Z,32.63
2019-04-21T10:32:25.256Z,33.84
2019-04-21T10:33:24.193Z,32.03
2019-04-21T10:34:23.513Z,32.23
2019-04-21T10:35:25.015Z,32.03
2019-04-21T10:36:24.574Z,32.23
2019-04-21T10:37:36.505Z,32.32
2019-04-21T10:38:34.820Z,32.32
2019-04-21T10:39:24.446Z,32.43
2019-04-21T10:40:23.565Z,33.23
2019-04-21T10:41:23.453Z,32.43
2019-04-21T10:42:23.715Z,32.51
2019-04-21T10:43:24.378Z,32.11
2019-04-21T10:44:23.384Z,32.21
2019-04-21T10:45:23.381Z,31.20
2019-04-21T10:46:24.597Z,31.81
2019-04-21T10:47:24.703Z,31.51
2019-04-21T10:48:23.346Z,31.12
2019-04-21T10:49:24.473Z,32.32
2019-04-21T10:50:24.481Z,31.22
2019-04-21T10:51:23.341Z,32.23
2019-04-21T10:52:23.295Z,31.32
2019-04-21T10:53:23.321Z,30.40
2019-04-21T10:54:24.158Z,31.60
2019-04-21T10:55:40.474Z,32.41
2019-04-21T10:56:31.330Z,31.69
2019-04-21T10:57:24.282Z,30.38
2019-04-21T10:58:24.457Z,31.30
2019-04-21T10:59:24.998Z,30.19
2019-04-21T11:00:24.015Z,30.70
2019-04-21T11:01:23.293Z,31.30
2019-04-21T11:02:23.225Z,30.70
2019-04-21T11:03:24.758Z,30.19
2019-04-21T11:04:29.003Z,30.80
2019-04-21T11:05:24.899Z,30.60
2019-04-21T11:06:24.475Z,30.60
2019-04-21T11:07:27.501Z,30.50
2019-04-21T11:08:30.030Z,30.79
2019-04-21T11:09:24.209Z,30.68
2019-04-21T11:10:23.127Z,29.98
2019-04-21T11:11:23.866Z,30.16
2019-04-21T11:12:23.977Z,30.32
2019-04-21T11:13:23.092Z,29.06
2019-04-21T11:14:23.196Z,28.21
2019-04-21T11:15:23.403Z,27.67
2019-04-21T11:16:23.543Z,25.13
2019-04-21T11:17:23.962Z,24.62
2019-04-21T11:18:24.051Z,23.69
2019-04-21T11:19:24.169Z,22.89
2019-04-21T11:20:23.018Z,22.08
2019-04-21T11:21:23.025Z,22.55
2019-04-21T11:22:23.126Z,23.15
2019-04-21T11:23:23.053Z,22.03
2019-04-21T11:24:23.125Z,21.72
2019-04-21T11:25:24.267Z,22.19
2019-04-21T11:26:24.182Z,21.39
2019-04-21T11:27:22.968Z,20.39
2019-04-21T11:28:23.045Z,20.48
2019-04-21T11:29:23.278Z,19.39
2019-04-21T11:30:23.323Z,19.19
2019-04-21T11:31:23.026Z,19.98
2019-04-21T11:32:23.156Z,20.30
2019-04-21T11:33:22.933Z,20.48
2019-04-21T11:34:23.127Z,20.59
2019-04-21T11:35:23.395Z,20.37
2019-04-21T11:36:22.931Z,19.57
2019-04-21T11:37:24.031Z,20.45
2019-04-21T11:38:26.623Z,20.43
2019-04-21T11:39:35.063Z,19.82
2019-04-21T11:40:25.849Z,18.92
2019-04-21T11:41:23.829Z,19.51
2019-04-21T11:42:23.790Z,18.42
2019-04-21T11:43:23.973Z,19.10
2019-04-21T11:44:24.724Z,18.40
2019-04-21T11:45:24.253Z,18.58
2019-04-21T11:46:22.759Z,17.79
2019-04-21T11:47:22.789Z,18.27
2019-04-21T11:48:24.117Z,17.68
2019-04-21T11:49:24.138Z,17.28
2019-04-21T11:50:23.243Z,18.05
2019-04-21T11:51:22.935Z,17.46
2019-04-21T11:52:22.890Z,17.66
2019-04-21T11:53:23.147Z,17.26
2019-04-21T11:54:22.701Z,17.25
2019-04-21T11:55:22.966Z,17.73
2019-04-21T11:56:23.158Z,16.85
2019-04-21T11:57:27.613Z,17.33
2019-04-21T11:58:23.741Z,16.75
2019-04-21T11:59:23.732Z,17.42
2019-04-21T12:00:23.886Z,16.73
2019-04-21T12:01:23.496Z,16.52
2019-04-21T12:02:23.563Z,16.53
2019-04-21T12:03:23.959Z,16.93
2019-04-21T12:04:23.434Z,16.83
2019-04-21T12:05:23.627Z,16.53
2019-04-21T12:06:28.967Z,16.91
2019-04-21T12:07:23.577Z,15.73
2019-04-21T12:08:30.271Z,15.93
2019-04-21T12:09:23.539Z,15.63
2019-04-21T12:10:23.686Z,15.23
2019-04-21T12:11:23.271Z,15.33
2019-04-21T12:12:23.274Z,15.42
2019-04-21T12:13:22.513Z,15.12
2019-04-21T12:14:23.763Z,15.12
2019-04-21T12:15:22.939Z,15.22
2019-04-21T12:16:23.339Z,14.83
2019-04-21T12:17:23.639Z,15.12
2019-04-21T12:18:25.064Z,15.12
2019-04-21T12:19:22.886Z,14.93
2019-04-21T12:20:22.444Z,15.14
2019-04-21T12:21:23.402Z,15.12
2019-04-21T12:22:28.191Z,15.22
2019-04-21T12:23:24.405Z,15.22
2019-04-21T12:24:22.406Z,15.12
2019-04-21T12:25:23.004Z,14.91
2019-04-21T12:26:22.425Z,14.52
2019-04-21T12:27:22.388Z,14.81
2019-04-21T12:28:23.777Z,14.72
2019-04-21T12:29:22.782Z,14.91
2019-04-21T12:30:22.351Z,14.81
2019-04-21T12:31:23.439Z,14.72
2019-04-21T12:32:22.367Z,14.52
2019-04-21T12:33:22.411Z,14.81
2019-04-21T12:34:23.680Z,14.52
2019-04-21T12:35:22.319Z,15.19
2019-04-21T12:36:22.334Z,14.12
2019-04-21T12:37:22.736Z,14.79
2019-04-21T12:38:32.369Z,13.92
2019-04-21T12:39:23.287Z,14.22
2019-04-21T12:40:22.283Z,14.03
2019-04-21T12:41:22.603Z,14.32
2019-04-21T12:42:22.905Z,14.02
2019-04-21T12:43:22.238Z,14.11
2019-04-21T12:44:22.585Z,14.10
2019-04-21T12:45:22.251Z,13.53
2019-04-21T12:46:22.203Z,14.10
2019-04-21T12:47:22.222Z,13.71
2019-04-21T12:48:22.220Z,14.48
2019-04-21T12:49:22.185Z,13.70
2019-04-21T12:50:23.496Z,13.60
2019-04-21T12:51:22.170Z,13.40
2019-04-21T12:52:22.180Z,13.11
2019-04-21T12:53:23.417Z,13.69
2019-04-21T12:54:23.682Z,13.49
2019-04-21T12:55:26.168Z,13.68
2019-04-21T12:56:23.469Z,13.30
2019-04-21T12:57:23.340Z,13.39
2019-04-21T12:58:23.516Z,13.38
2019-04-21T12:59:22.095Z,12.99
2019-04-21T13:01:23.304Z,12.60
2019-04-21T13:02:43.541Z,13.10
2019-04-21T13:03:23.480Z,13.01
2019-04-21T13:04:22.059Z,14.06
2019-04-21T13:05:22.081Z,13.76
2019-04-21T13:06:23.418Z,12.31
2019-04-21T13:07:23.472Z,13.12
2019-04-21T13:08:22.008Z,14.13
2019-04-21T13:09:22.300Z,13.55
2019-04-21T13:10:22.255Z,13.65
2019-04-21T13:11:23.285Z,14.33
2019-04-21T13:12:22.846Z,14.71
2019-04-21T13:13:22.121Z,14.12
2019-04-21T13:14:22.229Z,13.62
2019-04-21T13:15:21.949Z,13.13
2019-04-21T13:16:23.261Z,13.74
2019-04-21T13:17:21.959Z,14.34
2019-04-21T13:18:22.657Z,15.26
2019-04-21T13:19:23.086Z,15.47
2019-04-21T13:20:23.198Z,14.96
2019-04-21T13:21:22.410Z,15.14
2019-04-21T13:22:21.899Z,15.21
2019-04-21T13:23:23.132Z,15.01
2019-04-21T13:24:22.077Z,14.41
2019-04-21T13:25:21.868Z,13.62
2019-04-21T13:26:29.593Z,13.51
2019-04-21T13:27:22.854Z,13.99
2019-04-21T13:28:22.903Z,13.41
2019-04-21T13:29:21.822Z,13.01
2019-04-21T13:30:22.324Z,13.01
2019-04-21T13:31:22.373Z,13.40
2019-04-21T13:32:21.821Z,13.31
2019-04-21T13:33:22.956Z,13.89
2019-04-21T13:34:22.179Z,13.88
2019-04-21T13:35:23.022Z,13.57
2019-04-21T13:36:21.776Z,13.18
2019-04-21T13:37:21.775Z,13.09
2019-04-21T13:38:31.033Z,13.18
2019-04-21T13:39:52.263Z,12.88
2019-04-21T13:40:41.635Z,12.99
2019-04-21T13:41:40.794Z,12.81
2019-04-21T13:42:34.284Z,13.30
2019-04-21T13:43:23.148Z,14.20
2019-04-21T13:44:23.037Z,14.79
2019-04-21T13:45:21.970Z,13.91
2019-04-21T13:46:22.770Z,14.29
2019-04-21T13:47:22.741Z,13.81
2019-04-21T13:48:22.362Z,14.09
2019-04-21T13:49:21.634Z,14.18
2019-04-21T13:50:21.645Z,13.89
2019-04-21T13:51:22.899Z,13.87
2019-04-21T13:52:22.814Z,13.58
2019-04-21T13:53:22.747Z,12.92
2019-04-21T13:54:21.949Z,13.02
2019-04-21T13:55:21.575Z,13.42